Aviation Digital Data Service (ADDS)

Output produced by METARs form (0204 UTC 25 March 2019)
found at http://www.aviationweather.gov/metar/data/
 
LFLC 250200Z AUTO VRB03KT 6000 BKN021 BKN030 OVC042 07/03 Q1025 TEMPO BKN014
TAF LFLC 242000Z 2421/2521 36008KT 7000 BKN040 
     PROB30 
     TEMPO 2503/2508 BKN014 
     TEMPO 2514/2519 36018G28KT